Time;durP1;ratioP1;P1;durP2;ratioP2;P2;SDS_P1;SDS_P2;PMS_P1;PMS_P2;Temp;Humidity;BMP_temperature;BMP_pressure;BME280_temperature;BME280_humidity;BME280_pressure;Samples;Min_cycle;Max_cycle;Signal;HPM_P1;HPM_P2
2022/08/06 00:00:31;;;;;;;2.47;1.40;;;;;;;-148.56;100.00;61375.16;4916049;28;20066;-32
2022/08/06 00:02:56;;;;;;;2.47;1.40;;;;;;;-148.56;100.00;61375.16;4914681;28;21661;-31
2022/08/06 00:05:22;;;;;;;2.65;1.63;;;;;;;-148.56;100.00;61375.16;4915265;28;20033;-28
2022/08/06 00:07:47;;;;;;;2.30;1.50;;;;;;;-148.56;100.00;61375.16;4915652;28;20058;-27
2022/08/06 00:10:13;;;;;;;3.15;1.50;;;;;;;-148.56;100.00;61375.16;4912757;28;20050;-31
2022/08/06 00:12:38;;;;;;;2.88;1.58;;;;;;;-148.56;100.00;61375.16;4912203;28;20147;-29
2022/08/06 00:15:05;;;;;;;2.20;1.27;;;;;;;-148.56;100.00;61375.16;4914360;28;20753;-32
2022/08/06 00:17:30;;;;;;;2.38;1.20;;;;;;;-148.56;100.00;61375.16;4914904;28;20073;-26
2022/08/06 00:19:56;;;;;;;2.58;1.60;;;;;;;-148.56;100.00;61375.16;4915076;28;20246;-33
2022/08/06 00:22:21;;;;;;;2.90;1.30;;;;;;;-148.56;100.00;61375.16;4918952;28;20403;-33
2022/08/06 00:24:46;;;;;;;3.38;1.38;;;;;;;-148.56;100.00;61375.16;4913045;28;20046;-28
2022/08/06 00:27:12;;;;;;;3.25;1.20;;;;;;;-148.56;100.00;61375.16;4904664;28;20249;-29
2022/08/06 00:29:37;;;;;;;2.78;1.20;;;;;;;-148.56;100.00;61375.16;4913458;28;20042;-30
2022/08/06 00:32:03;;;;;;;2.13;1.17;;;;;;;-148.56;100.00;61375.16;4914571;28;20650;-27
2022/08/06 00:34:28;;;;;;;2.47;1.42;;;;;;;-148.56;100.00;61375.16;4914598;28;20795;-32
2022/08/06 00:36:53;;;;;;;1.98;1.02;;;;;;;-148.56;100.00;61375.16;4911196;28;20035;-29
2022/08/06 00:39:19;;;;;;;2.80;1.17;;;;;;;-148.56;100.00;61375.16;4905172;28;20047;-26
2022/08/06 00:41:44;;;;;;;3.42;1.20;;;;;;;-148.56;100.00;61375.16;4907910;28;20935;-32
2022/08/06 00:44:10;;;;;;;2.13;1.33;;;;;;;-148.56;100.00;61375.16;4917046;28;20042;-32
2022/08/06 00:46:35;;;;;;;2.75;1.35;;;;;;;-148.56;100.00;61375.16;4913661;28;20026;-30
2022/08/06 00:49:00;;;;;;;1.30;1.20;;;;;;;-148.56;100.00;61375.16;4913037;28;20035;-28
2022/08/06 00:51:26;;;;;;;3.50;1.00;;;;;;;-148.56;100.00;61375.16;4914645;28;20117;-26
2022/08/06 00:53:51;;;;;;;4.88;1.30;;;;;;;-148.56;100.00;61375.16;4909077;28;20026;-32
2022/08/06 00:56:17;;;;;;;3.17;1.48;;;;;;;-148.56;100.00;61375.16;4915562;28;20038;-25
2022/08/06 00:58:42;;;;;;;2.67;1.20;;;;;;;-148.56;100.00;61375.16;4912985;28;20023;-27
2022/08/06 01:01:08;;;;;;;4.60;1.20;;;;;;;-148.56;100.00;61375.16;4912873;28;20038;-33
2022/08/06 01:03:34;;;;;;;2.78;1.20;;;;;;;-148.56;100.00;61375.16;4915133;28;20045;-32
2022/08/06 01:05:59;;;;;;;4.63;1.30;;;;;;;-148.56;100.00;61375.16;4912791;28;20031;-30
2022/08/06 01:08:25;;;;;;;1.75;1.10;;;;;;;-148.56;100.00;61375.16;4914234;28;20030;-31
2022/08/06 01:10:50;;;;;;;2.47;1.40;;;;;;;-148.56;100.00;61375.16;4910925;28;21080;-29
2022/08/06 01:13:15;;;;;;;2.33;1.20;;;;;;;-148.56;100.00;61375.16;4908023;28;20035;-27
2022/08/06 01:15:42;;;;;;;5.82;1.63;;;;;;;-148.56;100.00;61375.16;4911643;28;20050;-28
2022/08/06 01:18:28;;;;;;;1.98;1.20;;;;;;;-148.56;100.00;61375.16;4909667;28;21553;-32
2022/08/06 01:21:15;;;;;;;3.13;1.10;;;;;;;-148.56;100.00;61375.16;4913716;28;22108;-31
2022/08/06 01:24:09;;;;;;;4.55;1.30;;;;;;;-148.56;100.00;61375.16;4909697;28;20764;-28
2022/08/06 01:26:40;;;;;;;2.00;1.15;;;;;;;-148.56;100.00;61375.16;4912829;28;20031;-29
2022/08/06 01:29:15;;;;;;;2.92;1.48;;;;;;;-148.56;100.00;61375.16;4897599;28;20082;-26
2022/08/06 01:31:49;;;;;;;2.35;1.00;;;;;;;-148.56;100.00;61375.16;4913417;28;20039;-29
2022/08/06 01:34:33;;;;;;;3.65;1.00;;;;;;;-148.56;100.00;61375.16;4905849;28;20053;-27
2022/08/06 01:37:24;;;;;;;1.38;0.95;;;;;;;-148.56;100.00;61375.16;4895806;28;20026;-29
2022/08/06 01:39:52;;;;;;;1.27;0.90;;;;;;;-148.56;100.00;61375.16;4909528;28;20057;-27
2022/08/06 01:42:19;;;;;;;1.80;0.95;;;;;;;-148.56;100.00;61375.16;4914017;28;20026;-28
2022/08/06 01:44:45;;;;;;;2.90;1.10;;;;;;;-148.56;100.00;61375.16;4909806;28;20033;-31
2022/08/06 01:47:11;;;;;;;1.83;1.25;;;;;;;-148.56;100.00;61375.16;4910110;28;20035;-30
2022/08/06 01:49:38;;;;;;;2.35;1.13;;;;;;;-148.56;100.00;61375.16;4912183;28;20284;-30
2022/08/06 01:52:03;;;;;;;4.45;1.00;;;;;;;-148.56;100.00;61375.16;4904102;28;20081;-32
2022/08/06 01:54:29;;;;;;;2.15;1.23;;;;;;;-148.56;100.00;61375.16;4897271;28;20854;-30
2022/08/06 01:56:55;;;;;;;2.67;1.23;;;;;;;-148.56;100.00;61375.16;4910398;28;21207;-28
2022/08/06 01:59:23;;;;;;;3.85;1.10;;;;;;;-148.56;100.00;61375.16;4909438;28;20031;-31
2022/08/06 02:01:51;;;;;;;2.70;1.20;;;;;;;-148.56;100.00;61375.16;4915081;28;20034;-30
2022/08/06 02:04:16;;;;;;;3.28;1.30;;;;;;;-148.56;100.00;61375.16;4910402;28;23154;-28
2022/08/06 02:06:42;;;;;;;2.75;1.42;;;;;;;-148.56;100.00;61375.16;4892019;28;20063;-26
2022/08/06 02:09:09;;;;;;;3.63;1.38;;;;;;;-148.56;100.00;61375.16;4907262;28;20035;-33
2022/08/06 02:11:34;;;;;;;3.95;1.08;;;;;;;-148.56;100.00;61375.16;4890069;28;20370;-33
2022/08/06 02:14:00;;;;;;;1.73;1.00;;;;;;;-148.56;100.00;61375.16;4892887;28;21083;-32
2022/08/06 02:16:30;;;;;;;2.80;0.93;;;;;;;-148.56;100.00;61375.16;4913153;28;20034;-30
2022/08/06 02:18:56;;;;;;;2.20;1.10;;;;;;;-148.56;100.00;61375.16;4911275;28;20143;-31
2022/08/06 02:21:21;;;;;;;6.32;1.30;;;;;;;-148.56;100.00;61375.16;4920703;28;21142;-27
2022/08/06 02:23:47;;;;;;;1.75;1.05;;;;;;;-148.56;100.00;61375.16;4907660;28;21071;-29
2022/08/06 02:26:12;;;;;;;3.22;1.00;;;;;;;-148.56;100.00;61375.16;4912805;28;20035;-30
2022/08/06 02:28:37;;;;;;;1.50;1.10;;;;;;;-148.56;100.00;61375.16;4905121;28;20035;-27
2022/08/06 02:31:03;;;;;;;3.40;0.90;;;;;;;-148.56;100.00;61375.16;4907605;28;20049;-30
2022/08/06 02:33:28;;;;;;;2.25;0.93;;;;;;;-148.56;100.00;61375.16;4907130;28;20678;-32
2022/08/06 02:35:57;;;;;;;5.07;1.38;;;;;;;-148.56;100.00;61375.16;4912633;28;20090;-29
2022/08/06 02:38:44;;;;;;;4.20;1.05;;;;;;;-148.56;100.00;61375.16;4914352;28;20037;-29
2022/08/06 02:41:43;;;;;;;3.15;1.17;;;;;;;-148.56;100.00;61375.16;4907008;28;20046;-27
2022/08/06 02:44:17;;;;;;;3.35;1.10;;;;;;;-148.56;100.00;61375.16;4905809;28;20047;-29
2022/08/06 02:46:49;;;;;;;4.20;1.23;;;;;;;-148.56;100.00;61375.16;4913881;28;20031;-27
2022/08/06 02:49:35;;;;;;;2.75;1.10;;;;;;;-148.56;100.00;61375.16;4899728;28;20677;-30
2022/08/06 02:52:04;;;;;;;5.43;1.05;;;;;;;-148.56;100.00;61375.16;4919551;28;20045;-29
2022/08/06 02:54:41;;;;;;;1.52;1.10;;;;;;;-148.56;100.00;61375.16;4908962;28;20050;-32
2022/08/06 02:57:08;;;;;;;1.98;1.20;;;;;;;-148.56;100.00;61375.16;4892953;28;20031;-29
2022/08/06 02:59:45;;;;;;;1.60;0.95;;;;;;;-148.56;100.00;61375.16;4888683;28;20042;-32
2022/08/06 03:02:11;;;;;;;1.90;1.10;;;;;;;-148.56;100.00;61375.16;4911283;28;20058;-26
2022/08/06 03:04:36;;;;;;;1.83;0.98;;;;;;;-148.56;100.00;61375.16;4911322;28;20442;-27
2022/08/06 03:07:04;;;;;;;1.85;0.95;;;;;;;-148.56;100.00;61375.16;4908748;28;20038;-29
2022/08/06 03:09:29;;;;;;;2.50;1.00;;;;;;;-148.56;100.00;61375.16;4907936;28;22035;-26
2022/08/06 03:11:55;;;;;;;3.20;1.33;;;;;;;-148.56;100.00;61375.16;4906951;28;20148;-27
2022/08/06 03:14:20;;;;;;;3.38;1.27;;;;;;;-148.56;100.00;61375.16;4908585;28;20899;-28
2022/08/06 03:16:45;;;;;;;3.42;1.15;;;;;;;-148.56;100.00;61375.16;4899044;28;20038;-29
2022/08/06 03:19:11;;;;;;;2.97;1.05;;;;;;;-148.56;100.00;61375.16;4920021;28;20387;-28
2022/08/06 03:21:36;;;;;;;2.83;1.08;;;;;;;-148.56;100.00;61375.16;4914849;28;20042;-32
2022/08/06 03:24:02;;;;;;;2.30;1.00;;;;;;;-148.56;100.00;61375.16;4918141;28;20097;-26
2022/08/06 03:26:27;;;;;;;2.83;1.30;;;;;;;-148.56;100.00;61375.16;4901691;28;20041;-28
2022/08/06 03:28:56;;;;;;;1.75;0.95;;;;;;;-148.56;100.00;61375.16;4913852;28;20030;-30
2022/08/06 03:31:22;;;;;;;1.88;1.10;;;;;;;-148.56;100.00;61375.16;4915232;28;20035;-25
2022/08/06 03:33:48;;;;;;;2.25;0.90;;;;;;;-148.56;100.00;61375.16;4911204;28;20031;-28
2022/08/06 03:36:13;;;;;;;2.33;1.13;;;;;;;-148.56;100.00;61375.16;4921707;28;20069;-26
2022/08/06 03:38:41;;;;;;;4.10;1.00;;;;;;;-148.56;100.00;61375.16;4924079;28;22389;-29
2022/08/06 03:41:07;;;;;;;4.10;1.35;;;;;;;-148.56;100.00;61375.16;4915575;28;20138;-31
2022/08/06 03:43:33;;;;;;;1.65;0.80;;;;;;;-148.56;100.00;61375.16;4922317;28;20030;-28
2022/08/06 03:46:00;;;;;;;3.00;1.00;;;;;;;-148.56;100.00;61375.16;4943184;28;20031;-31
2022/08/06 03:48:31;;;;;;;2.05;0.90;;;;;;;-148.56;100.00;61375.16;4906039;28;20123;-25
2022/08/06 03:50:56;;;;;;;1.77;0.82;;;;;;;-148.56;100.00;61375.16;4923624;28;20113;-29
2022/08/06 03:53:25;;;;;;;3.28;1.17;;;;;;;-148.56;100.00;61375.16;4919800;28;20045;-33
2022/08/06 03:55:54;;;;;;;2.40;1.10;;;;;;;-148.56;100.00;61375.16;4920882;28;20054;-27
2022/08/06 03:58:19;;;;;;;1.33;0.80;;;;;;;-148.56;100.00;61375.16;4918692;28;20049;-28
2022/08/06 04:01:05;;;;;;;1.42;1.08;;;;;;;-148.56;100.00;61375.16;4926541;28;20038;-25
2022/08/06 04:03:32;;;;;;;2.10;0.90;;;;;;;-148.56;100.00;61375.16;4921943;28;20390;-34
2022/08/06 04:05:57;;;;;;;2.80;0.93;;;;;;;-148.56;100.00;61375.16;4922035;28;20035;-31
2022/08/06 04:08:23;;;;;;;4.03;1.30;;;;;;;-148.56;100.00;61375.16;4901266;28;20035;-28
2022/08/06 04:10:48;;;;;;;2.15;1.15;;;;;;;-148.56;100.00;61375.16;4921428;28;20027;-31
2022/08/06 04:13:16;;;;;;;3.15;1.27;;;;;;;-148.56;100.00;61375.16;4911289;28;20037;-29
2022/08/06 04:15:42;;;;;;;2.63;1.00;;;;;;;-148.56;100.00;61375.16;4917530;28;20030;-31
2022/08/06 04:18:19;;;;;;;2.35;1.05;;;;;;;-148.56;100.00;61375.16;4926774;28;20057;-32
2022/08/06 04:20:46;;;;;;;2.95;1.00;;;;;;;-148.56;100.00;61375.16;4917343;28;20057;-27
2022/08/06 04:23:12;;;;;;;2.85;1.42;;;;;;;-148.56;100.00;61375.16;4920420;28;20195;-32
2022/08/06 04:25:45;;;;;;;1.98;1.17;;;;;;;-148.56;100.00;61375.16;4919016;28;20785;-33
2022/08/06 04:28:11;;;;;;;2.53;1.20;;;;;;;-148.56;100.00;61375.16;4908722;28;20030;-34
2022/08/06 04:30:37;;;;;;;1.67;0.90;;;;;;;-148.56;100.00;61375.16;4912945;28;21065;-30
2022/08/06 04:33:03;;;;;;;4.63;1.20;;;;;;;-148.56;100.00;61375.16;4915009;28;20196;-32
2022/08/06 04:35:29;;;;;;;2.75;1.13;;;;;;;-148.56;100.00;61375.16;4914825;28;21439;-29
2022/08/06 04:37:54;;;;;;;3.00;1.10;;;;;;;-148.56;100.00;61375.16;4907560;28;20519;-31
2022/08/06 04:40:20;;;;;;;3.53;1.00;;;;;;;-148.56;100.00;61375.16;4910449;28;20132;-27
2022/08/06 04:42:45;;;;;;;1.75;1.13;;;;;;;-148.56;100.00;61375.16;4905022;28;20038;-29
2022/08/06 04:45:11;;;;;;;4.93;1.13;;;;;;;-148.56;100.00;61375.16;4914120;28;20193;-31
2022/08/06 04:47:36;;;;;;;2.30;1.17;;;;;;;-148.56;100.00;61375.16;4930144;28;21006;-31
2022/08/06 04:50:02;;;;;;;2.80;1.45;;;;;;;-148.56;100.00;61375.16;4896466;28;20570;-27
2022/08/06 04:52:27;;;;;;;2.03;1.13;;;;;;;-148.56;100.00;61375.16;4912962;28;20049;-27
2022/08/06 04:54:53;;;;;;;2.45;1.10;;;;;;;-148.56;100.00;61375.16;4923609;28;20940;-30
2022/08/06 04:57:18;;;;;;;2.30;1.13;;;;;;;-148.56;100.00;61375.16;4914023;28;20043;-33
2022/08/06 04:59:44;;;;;;;2.13;1.20;;;;;;;-148.56;100.00;61375.16;4919255;28;20268;-25
2022/08/06 05:02:09;;;;;;;3.28;1.10;;;;;;;-148.56;100.00;61375.16;4917330;28;20312;-29
2022/08/06 05:04:35;;;;;;;6.03;1.50;;;;;;;-148.56;100.00;61375.16;4920772;28;20170;-28
2022/08/06 05:07:20;;;;;;;6.00;1.10;;;;;;;-148.56;100.00;61375.16;4920124;28;20582;-30
2022/08/06 05:09:46;;;;;;;1.65;1.00;;;;;;;-148.56;100.00;61375.16;4915334;28;20054;-29
2022/08/06 05:12:36;;;;;;;4.05;1.30;;;;;;;-148.56;100.00;61375.16;4906140;28;20041;-27
2022/08/06 05:15:05;;;;;;;3.42;1.08;;;;;;;-148.56;100.00;61375.16;4916733;28;20122;-29
2022/08/06 05:17:34;;;;;;;5.00;1.05;;;;;;;-148.56;100.00;61375.16;4921355;28;20057;-33
2022/08/06 05:20:04;;;;;;;2.95;1.10;;;;;;;-148.56;100.00;61375.16;4921140;28;20909;-30
2022/08/06 05:22:30;;;;;;;3.75;1.20;;;;;;;-148.56;100.00;61375.16;4915008;28;20112;-27
2022/08/06 05:24:55;;;;;;;3.65;1.17;;;;;;;-148.56;100.00;61375.16;4903327;28;20182;-29
2022/08/06 05:27:20;;;;;;;1.65;0.98;;;;;;;-148.56;100.00;61375.16;4902029;28;20042;-28
2022/08/06 05:29:46;;;;;;;2.38;1.13;;;;;;;-148.56;100.00;61375.16;4921416;28;20034;-31
2022/08/06 05:32:11;;;;;;;3.20;1.20;;;;;;;-148.56;100.00;61375.16;4915262;28;20042;-29
2022/08/06 05:34:37;;;;;;;1.95;1.23;;;;;;;-148.56;100.00;61375.16;4903135;28;20030;-29
2022/08/06 05:37:02;;;;;;;2.78;1.10;;;;;;;-148.56;100.00;61375.16;4909680;28;20442;-31
2022/08/06 05:39:27;;;;;;;2.33;1.10;;;;;;;-148.56;100.00;61375.16;4917625;28;21269;-33
2022/08/06 05:41:53;;;;;;;4.18;1.30;;;;;;;-148.56;100.00;61375.16;4911390;28;20039;-32
2022/08/06 05:44:18;;;;;;;4.40;1.05;;;;;;;-148.56;100.00;61375.16;4914568;28;20035;-29
2022/08/06 05:46:51;;;;;;;2.63;1.20;;;;;;;-148.56;100.00;61375.16;4923144;28;20037;-28
2022/08/06 05:49:29;;;;;;;1.65;0.90;;;;;;;-148.56;100.00;61375.16;4921733;28;20696;-26
2022/08/06 05:52:19;;;;;;;2.70;1.33;;;;;;;-148.56;100.00;61375.16;4908145;28;20034;-29
2022/08/06 05:55:17;;;;;;;2.08;1.05;;;;;;;-148.56;100.00;61375.16;4918378;28;20232;-25
2022/08/06 05:57:47;;;;;;;6.22;1.40;;;;;;;-148.56;100.00;61375.16;4916853;28;20041;-30
2022/08/06 06:00:15;;;;;;;4.93;1.25;;;;;;;-148.56;100.00;61375.16;4931353;28;20213;-32
2022/08/06 06:02:43;;;;;;;3.35;1.30;;;;;;;-148.56;100.00;61375.16;4897995;28;20035;-28
2022/08/06 06:05:09;;;;;;;4.28;1.20;;;;;;;-148.56;100.00;61375.16;4915163;28;20039;-31
2022/08/06 06:07:34;;;;;;;2.20;1.27;;;;;;;-148.56;100.00;61375.16;4910420;28;20712;-27
2022/08/06 06:10:01;;;;;;;5.07;1.40;;;;;;;-148.56;100.00;61375.16;4917167;28;20146;-29
2022/08/06 06:12:27;;;;;;;2.47;1.33;;;;;;;-148.56;100.00;61375.16;4917245;28;20727;-30
2022/08/06 06:14:52;;;;;;;5.70;1.20;;;;;;;-148.56;100.00;61375.16;4916298;28;20031;-31
2022/08/06 06:17:27;;;;;;;3.33;1.23;;;;;;;-148.56;100.00;61375.16;4920804;28;20034;-29
2022/08/06 06:20:06;;;;;;;2.40;1.25;;;;;;;-148.56;100.00;61375.16;4912328;28;20045;-27
2022/08/06 06:22:37;;;;;;;3.15;1.25;;;;;;;-148.56;100.00;61375.16;4907372;28;20038;-33
2022/08/06 06:25:07;;;;;;;4.18;1.70;;;;;;;-148.56;100.00;61375.16;4919091;28;20258;-27
2022/08/06 06:27:34;;;;;;;4.57;1.83;;;;;;;-148.56;100.00;61375.16;4916334;28;20046;-29
2022/08/06 06:30:01;;;;;;;7.53;1.90;;;;;;;-148.56;100.00;61375.16;4917232;28;20038;-26
2022/08/06 06:32:44;;;;;;;7.13;2.05;;;;;;;-148.56;100.00;61375.16;4906566;28;20106;-35
2022/08/06 06:35:21;;;;;;;4.13;1.98;;;;;;;-148.56;100.00;61375.16;4886374;28;20045;-31
2022/08/06 06:37:49;;;;;;;3.70;1.80;;;;;;;-148.56;100.00;61375.16;4905374;28;20693;-28
2022/08/06 06:40:27;;;;;;;7.72;1.85;;;;;;;-148.56;100.00;61375.16;4904801;28;20038;-28
2022/08/06 06:43:22;;;;;;;7.30;1.70;;;;;;;-148.56;100.00;61375.16;4914563;28;20149;-30
2022/08/06 06:46:04;;;;;;;6.10;1.92;;;;;;;-148.56;100.00;61375.16;4884767;28;22087;-25
2022/08/06 06:48:46;;;;;;;4.70;1.35;;;;;;;-148.56;100.00;61375.16;4909027;28;20053;-29
2022/08/06 06:51:21;;;;;;;;;;;;;;;-148.56;100.00;61375.16;4916170;28;20031;-25
2022/08/06 06:53:47;;;;;;;5.53;1.30;;;;;;;-148.56;100.00;61375.16;4914795;28;19921;-31
2022/08/06 06:56:13;;;;;;;5.90;1.42;;;;;;;-148.56;100.00;61375.16;4915067;28;20057;-36
2022/08/06 06:58:42;;;;;;;3.53;1.63;;;;;;;-148.56;100.00;61375.16;4909981;28;20103;-26
2022/08/06 07:01:10;;;;;;;2.88;1.30;;;;;;;-148.56;100.00;61375.16;4902118;28;20058;-32
2022/08/06 07:03:37;;;;;;;7.72;1.42;;;;;;;-148.56;100.00;61375.16;4917188;28;20030;-32
2022/08/06 07:06:02;;;;;;;3.30;1.50;;;;;;;-148.56;100.00;61375.16;4918220;28;20039;-34
2022/08/06 07:08:28;;;;;;;4.20;1.55;;;;;;;-148.56;100.00;61375.16;4917243;28;20109;-28
2022/08/06 07:10:55;;;;;;;4.15;1.20;;;;;;;-148.56;100.00;61375.16;4917845;28;20041;-28
2022/08/06 07:13:20;;;;;;;3.70;1.17;;;;;;;-148.56;100.00;61375.16;4909278;28;20781;-30
2022/08/06 07:15:46;;;;;;;2.33;1.20;;;;;;;-148.56;100.00;61375.16;4918127;28;20046;-31
2022/08/06 07:18:11;;;;;;;3.28;1.40;;;;;;;-148.56;100.00;61375.16;4915365;28;20643;-30
2022/08/06 07:20:37;;;;;;;4.35;1.50;;;;;;;-148.56;100.00;61375.16;4920241;28;20047;-28
2022/08/06 07:23:06;;;;;;;6.13;1.75;;;;;;;-148.56;100.00;61375.16;4921474;28;20665;-30
2022/08/06 07:25:34;;;;;;;2.95;1.30;;;;;;;-148.56;100.00;61375.16;4916275;28;20031;-25
2022/08/06 07:27:59;;;;;;;4.07;1.73;;;;;;;-148.56;100.00;61375.16;4897485;28;20037;-29
2022/08/06 07:30:25;;;;;;;3.75;1.50;;;;;;;-148.56;100.00;61375.16;4910890;28;23396;-31
2022/08/06 07:32:50;;;;;;;4.72;2.00;;;;;;;-148.56;100.00;61375.16;4898802;28;20038;-31
2022/08/06 07:35:17;;;;;;;4.43;1.55;;;;;;;-148.56;100.00;61375.16;4914266;28;21833;-30
2022/08/06 07:38:02;;;;;;;1.98;1.35;;;;;;;-148.56;100.00;61375.16;4915261;28;20063;-31
2022/08/06 07:40:44;;;;;;;4.00;1.67;;;;;;;-148.56;100.00;61375.16;4919083;28;20049;-28
2022/08/06 07:43:15;;;;;;;7.07;1.50;;;;;;;-148.56;100.00;61375.16;4913646;28;20141;-28
2022/08/06 07:45:41;;;;;;;4.15;1.55;;;;;;;-148.56;100.00;61375.16;4919712;28;20031;-30
2022/08/06 07:48:09;;;;;;;6.50;1.80;;;;;;;-148.56;100.00;61375.16;4916914;28;20077;-32
2022/08/06 07:50:34;;;;;;;7.65;1.77;;;;;;;-148.56;100.00;61375.16;4918166;28;20039;-31
2022/08/06 07:52:59;;;;;;;2.83;1.50;;;;;;;-148.56;100.00;61375.16;4914845;28;20038;-29
2022/08/06 07:55:26;;;;;;;4.88;1.65;;;;;;;-148.56;100.00;61375.16;4914278;28;20609;-30
2022/08/06 07:57:55;;;;;;;4.57;1.40;;;;;;;-148.56;100.00;61375.16;4914413;28;21192;-31
2022/08/06 08:00:22;;;;;;;3.88;1.60;;;;;;;-148.56;100.00;61375.16;4912379;28;20119;-32
2022/08/06 08:06:17;;;;;;;3.10;1.58;;;;;;;-148.56;100.00;61375.16;4915071;28;20045;-31
2022/08/06 08:08:17;;;;;;;4.70;1.80;;;;;;;-148.56;100.00;61375.16;4918366;28;20042;-27
2022/08/06 08:10:42;;;;;;;3.63;1.58;;;;;;;-148.56;100.00;61375.16;4900498;28;20070;-28
2022/08/06 08:13:09;;;;;;;5.15;1.95;;;;;;;-148.56;100.00;61375.16;4899137;28;20034;-27
2022/08/06 08:15:35;;;;;;;5.38;1.50;;;;;;;-148.56;100.00;61375.16;4902206;28;20042;-30
2022/08/06 08:18:00;;;;;;;3.75;1.35;;;;;;;-148.56;100.00;61375.16;4901441;28;20034;-31
2022/08/06 08:20:27;;;;;;;3.78;1.52;;;;;;;-148.56;100.00;61375.16;4917726;28;20043;-27
2022/08/06 08:22:52;;;;;;;3.70;1.40;;;;;;;-148.56;100.00;61375.16;4914279;28;20050;-32
2022/08/06 08:25:17;;;;;;;3.20;1.40;;;;;;;-148.56;100.00;61375.16;4922709;28;20149;-31
2022/08/06 08:27:43;;;;;;;3.22;1.52;;;;;;;-148.56;100.00;61375.16;4910075;28;20056;-31
2022/08/06 08:30:10;;;;;;;5.70;1.90;;;;;;;-148.56;100.00;61375.16;4917108;28;20030;-27
2022/08/06 08:32:35;;;;;;;6.07;1.73;;;;;;;-148.56;100.00;61375.16;4912627;28;20283;-30
2022/08/06 08:35:01;;;;;;;3.75;1.60;;;;;;;-148.56;100.00;61375.16;4912994;28;20046;-29
2022/08/06 08:37:26;;;;;;;6.47;1.50;;;;;;;-148.56;100.00;61375.16;4917559;28;20721;-29
2022/08/06 08:39:52;;;;;;;21.33;5.47;;;;;;;-148.56;100.00;61375.16;4904008;28;20078;-24
2022/08/06 08:42:18;;;;;;;10.50;3.10;;;;;;;-148.56;100.00;61375.16;4909457;28;20031;-28
2022/08/06 08:44:43;;;;;;;9.88;2.33;;;;;;;-148.56;100.00;61375.16;4911207;28;21945;-30
2022/08/06 08:47:09;;;;;;;9.25;1.75;;;;;;;-148.56;100.00;61375.16;4895011;28;20030;-28
2022/08/06 08:49:37;;;;;;;4.30;1.75;;;;;;;-148.56;100.00;61375.16;4908707;28;20027;-28
2022/08/06 08:52:07;;;;;;;7.30;2.53;;;;;;;-148.56;100.00;61375.16;4911850;28;20299;-26
2022/08/06 08:54:34;;;;;;;6.07;2.08;;;;;;;-148.56;100.00;61375.16;4906219;28;20043;-33
2022/08/06 08:57:00;;;;;;;8.57;2.20;;;;;;;-148.56;100.00;61375.16;4920908;28;20050;-27
2022/08/06 08:59:25;;;;;;;7.50;2.30;;;;;;;-148.56;100.00;61375.16;4921293;28;20035;-29
2022/08/06 09:01:50;;;;;;;8.98;2.42;;;;;;;-148.56;100.00;61375.16;4902241;28;20514;-27
2022/08/06 09:04:16;;;;;;;7.28;2.50;;;;;;;-148.56;100.00;61375.16;4909032;28;20153;-31
2022/08/06 09:06:41;;;;;;;11.60;2.35;;;;;;;-148.56;100.00;61375.16;4919105;28;20105;-31
2022/08/06 09:09:07;;;;;;;8.80;2.30;;;;;;;-148.56;100.00;61375.16;4916563;28;20050;-31
2022/08/06 09:11:33;;;;;;;8.60;2.15;;;;;;;-148.56;100.00;61375.16;4916734;28;20720;-29
2022/08/06 09:14:06;;;;;;;5.68;2.22;;;;;;;-148.56;100.00;61375.16;4920194;28;20050;-29
2022/08/06 09:16:32;;;;;;;7.25;2.30;;;;;;;-148.56;100.00;61375.16;4921613;28;20843;-34
2022/08/06 09:18:58;;;;;;;8.15;2.40;;;;;;;-148.56;100.00;61375.16;4925410;28;20037;-27
2022/08/06 09:21:24;;;;;;;8.38;2.03;;;;;;;-148.56;100.00;61375.16;4925501;28;20132;-29
2022/08/06 09:23:49;;;;;;;10.57;2.00;;;;;;;-148.56;100.00;61375.16;4922760;28;20046;-28
2022/08/06 09:26:15;;;;;;;4.78;1.80;;;;;;;-148.56;100.00;61375.16;4917253;28;20964;-32
2022/08/06 09:28:42;;;;;;;4.80;1.55;;;;;;;-148.56;100.00;61375.16;4919888;28;21362;-29
2022/08/06 09:31:13;;;;;;;8.20;2.08;;;;;;;-148.56;100.00;61375.16;4921261;28;20694;-29
2022/08/06 09:33:52;;;;;;;7.00;1.70;;;;;;;-148.56;100.00;61375.16;4917883;28;20121;-30
2022/08/06 09:36:18;;;;;;;8.85;1.70;;;;;;;-148.56;100.00;61375.16;4923880;28;20516;-26
2022/08/06 09:38:55;;;;;;;7.38;1.92;;;;;;;-148.56;100.00;61375.16;4926571;28;21100;-34
2022/08/06 09:41:21;;;;;;;12.98;1.80;;;;;;;-148.56;100.00;61375.16;4924974;28;20039;-29
2022/08/06 09:43:48;;;;;;;9.68;1.85;;;;;;;-148.56;100.00;61375.16;4923493;28;20945;-33
2022/08/06 09:46:14;;;;;;;6.93;1.58;;;;;;;-148.56;100.00;61375.16;4928777;28;20093;-33
2022/08/06 09:48:59;;;;;;;5.75;1.75;;;;;;;-148.56;100.00;61375.16;4927226;28;21483;-29
2022/08/06 09:51:24;;;;;;;7.72;1.70;;;;;;;-148.56;100.00;61375.16;4924858;28;20060;-31
2022/08/06 09:53:57;;;;;;;14.70;1.80;;;;;;;-148.56;100.00;61375.16;4920277;28;20030;-30
2022/08/06 09:56:22;;;;;;;12.70;1.85;;;;;;;-148.56;100.00;61375.16;4919478;28;20126;-35
2022/08/06 09:58:48;;;;;;;12.40;1.90;;;;;;;-148.56;100.00;61375.16;4918985;28;20023;-33
2022/08/06 10:01:20;;;;;;;6.20;1.65;;;;;;;-148.56;100.00;61375.16;4917453;28;20168;-28
2022/08/06 10:03:46;;;;;;;4.60;1.60;;;;;;;-148.56;100.00;61375.16;4921895;28;20035;-29
2022/08/06 10:06:16;;;;;;;7.90;2.22;;;;;;;-148.56;100.00;61375.16;4918734;28;20648;-30
2022/08/06 10:08:43;;;;;;;10.13;2.65;;;;;;;-148.56;100.00;61375.16;4922120;28;20047;-26
2022/08/06 10:11:09;;;;;;;11.48;2.67;;;;;;;-148.56;100.00;61375.16;4921352;28;21562;-32
2022/08/06 10:13:35;;;;;;;12.60;3.28;;;;;;;-148.56;100.00;61375.16;4922977;28;20034;-31
2022/08/06 10:16:13;;;;;;;9.82;2.88;;;;;;;-148.56;100.00;61375.16;4931474;28;20121;-28
2022/08/06 10:18:41;;;;;;;13.05;3.20;;;;;;;-148.56;100.00;61375.16;4926689;28;20093;-32
2022/08/06 10:21:15;;;;;;;16.85;3.30;;;;;;;-148.56;100.00;61375.16;4926898;28;20666;-31
2022/08/06 10:23:41;;;;;;;11.38;3.15;;;;;;;-148.56;100.00;61375.16;4930569;28;20030;-31
2022/08/06 10:26:09;;;;;;;16.42;3.47;;;;;;;-148.56;100.00;61375.16;4926201;28;20043;-33
2022/08/06 10:28:35;;;;;;;10.95;3.38;;;;;;;-148.56;100.00;61375.16;4926776;28;20050;-31
2022/08/06 10:31:11;;;;;;;11.13;3.35;;;;;;;-148.56;100.00;61375.16;4930850;28;20043;-35
2022/08/06 10:33:44;;;;;;;12.35;3.33;;;;;;;-148.56;100.00;61375.16;4922761;28;20035;-33
2022/08/06 10:36:12;;;;;;;9.48;2.92;;;;;;;-148.56;100.00;61375.16;4928606;28;20056;-35
2022/08/06 10:38:40;;;;;;;9.02;2.80;;;;;;;-148.56;100.00;61375.16;4928958;28;20573;-33
2022/08/06 10:41:10;;;;;;;15.07;3.20;;;;;;;-148.56;100.00;61375.16;4921969;28;20109;-28
2022/08/06 10:43:37;;;;;;;9.25;2.80;;;;;;;-148.56;100.00;61375.16;4919759;28;20090;-33
2022/08/06 10:46:06;;;;;;;8.63;2.88;;;;;;;-148.56;100.00;61375.16;4926987;28;20031;-35
2022/08/06 10:48:36;;;;;;;13.30;3.08;;;;;;;-148.56;100.00;61375.16;4924300;28;21052;-34
2022/08/06 10:51:02;;;;;;;7.25;2.60;;;;;;;-148.56;100.00;61375.16;4923280;28;20153;-32
2022/08/06 10:53:28;;;;;;;6.88;2.60;;;;;;;-148.56;100.00;61375.16;4923635;28;20022;-34
2022/08/06 10:55:53;;;;;;;7.60;2.70;;;;;;;-148.56;100.00;61375.16;4921881;28;20053;-32
2022/08/06 10:58:18;;;;;;;7.50;2.65;;;;;;;-148.56;100.00;61375.16;4926945;28;20455;-31
2022/08/06 11:00:44;;;;;;;8.07;2.60;;;;;;;-148.56;100.00;61375.16;4922712;28;20035;-31
2022/08/06 11:03:17;;;;;;;5.40;2.58;;;;;;;-148.56;100.00;61375.16;4927345;28;21071;-29
2022/08/06 11:05:42;;;;;;;4.55;1.90;;;;;;;-148.56;100.00;61375.16;4926932;28;20039;-29
2022/08/06 11:08:26;;;;;;;11.20;2.50;;;;;;;-148.56;100.00;61375.16;4928785;28;20035;-27
2022/08/06 11:11:29;;;;;;;6.00;2.20;;;;;;;-148.56;100.00;61375.16;4924026;28;20029;-31
2022/08/06 11:14:02;;;;;;;4.45;2.20;;;;;;;-148.56;100.00;61375.16;4928245;28;20035;-29
2022/08/06 11:16:29;;;;;;;7.05;2.50;;;;;;;-148.56;100.00;61375.16;4925887;28;22337;-34
2022/08/06 11:19:13;;;;;;;5.53;2.22;;;;;;;-148.56;100.00;61375.16;4926303;28;20142;-31